Time;durP1;ratioP1;P1;durP2;ratioP2;P2;SDS_P1;SDS_P2;PMS_P1;PMS_P2;Temp;Humidity;BMP_temperature;BMP_pressure;BME280_temperature;BME280_humidity;BME280_pressure;Samples;Min_cycle;Max_cycle;Signal;HPM_P1;HPM_P2
2022/05/27 00:01:27;;;;;;;1.38;1.27;;;;;;;;;;5052168;28;20182;-84
2022/05/27 00:03:55;;;;;;;2.70;1.50;;;;;;;;;;5051364;28;20587;-84
2022/05/27 00:06:22;;;;;;;1.17;1.08;;;;;;;;;;5052262;28;20202;-86
2022/05/27 00:08:49;;;;;;;0.63;0.63;;;;;;;;;;5051898;28;20584;-85
2022/05/27 00:11:17;;;;;;;0.57;0.57;;;;;;;;;;5051914;28;20202;-85
2022/05/27 00:13:45;;;;;;;0.80;0.80;;;;;;;;;;5050995;28;20201;-84
2022/05/27 00:16:14;;;;;;;1.13;0.70;;;;;;;;;;5051755;28;20194;-84
2022/05/27 00:18:42;;;;;;;1.60;1.30;;;;;;;;;;5051864;28;20229;-85
2022/05/27 00:21:10;;;;;;;0.93;0.82;;;;;;;;;;5051701;28;20201;-85
2022/05/27 00:23:39;;;;;;;1.10;0.90;;;;;;;;;;5051323;28;20212;-85
2022/05/27 00:26:07;;;;;;;3.47;0.90;;;;;;;;;;5051734;28;20679;-85
2022/05/27 00:28:34;;;;;;;0.75;0.75;;;;;;;;;;5051501;28;20224;-85
2022/05/27 00:31:03;;;;;;;1.83;0.98;;;;;;;;;;5051689;28;20198;-84
2022/05/27 00:33:32;;;;;;;2.38;0.88;;;;;;;;;;5051144;28;20251;-84
2022/05/27 00:35:59;;;;;;;0.90;0.75;;;;;;;;;;5054600;28;20243;-85
2022/05/27 00:38:26;;;;;;;1.13;0.60;;;;;;;;;;5019527;28;1036435;-85
2022/05/27 00:40:54;;;;;;;0.80;0.80;;;;;;;;;;5056452;28;20201;-85
2022/05/27 00:43:22;;;;;;;0.65;0.65;;;;;;;;;;5056051;28;20232;-85
2022/05/27 00:45:58;;;;;;;0.63;0.63;;;;;;;;;;5056537;28;20205;-85
2022/05/27 00:48:25;;;;;;;0.80;0.70;;;;;;;;;;5056489;28;20248;-85
2022/05/27 00:50:54;;;;;;;0.70;0.70;;;;;;;;;;5056429;28;20213;-85
2022/05/27 00:53:25;;;;;;;1.05;0.77;;;;;;;;;;5055328;28;20205;-84
2022/05/27 00:55:57;;;;;;;1.17;0.80;;;;;;;;;;5056070;28;20185;-85
2022/05/27 00:58:29;;;;;;;1.35;1.05;;;;;;;;;;5056282;28;20639;-84
2022/05/27 01:00:57;;;;;;;0.93;0.82;;;;;;;;;;5056229;28;20201;-86
2022/05/27 01:03:27;;;;;;;1.63;1.20;;;;;;;;;;5055706;28;20651;-84
2022/05/27 01:05:56;;;;;;;0.98;0.95;;;;;;;;;;5055872;28;20182;-85
2022/05/27 01:08:27;;;;;;;1.15;0.80;;;;;;;;;;5055943;28;20225;-85
2022/05/27 01:11:02;;;;;;;1.05;0.90;;;;;;;;;;5056066;28;20182;-84
2022/05/27 01:13:42;;;;;;;0.80;0.80;;;;;;;;;;5055447;28;20182;-85
2022/05/27 01:16:18;;;;;;;1.27;0.98;;;;;;;;;;5056084;28;20178;-85
2022/05/27 01:22:25;;;;;;;0.95;0.95;;;;;;;;;;5055268;28;20207;-85
2022/05/27 01:25:26;;;;;;;0.98;0.90;;;;;;;;;;5055657;28;20181;-84
2022/05/27 01:28:24;;;;;;;0.95;0.90;;;;;;;;;;5055479;28;20271;-85
2022/05/27 01:30:56;;;;;;;1.10;0.90;;;;;;;;;;5055453;28;20553;-85
2022/05/27 01:33:40;;;;;;;1.17;1.08;;;;;;;;;;5054741;28;20257;-84
2022/05/27 01:36:23;;;;;;;0.98;0.80;;;;;;;;;;5055613;28;20223;-85
2022/05/27 01:39:03;;;;;;;1.52;0.90;;;;;;;;;;5055177;28;20740;-85
2022/05/27 01:41:42;;;;;;;1.23;1.00;;;;;;;;;;5055536;28;20603;-85
2022/05/27 01:44:16;;;;;;;1.50;1.10;;;;;;;;;;5055626;28;20239;-85
2022/05/27 01:46:47;;;;;;;0.60;0.60;;;;;;;;;;5055490;28;20189;-85
2022/05/27 01:49:24;;;;;;;1.17;0.88;;;;;;;;;;5055036;28;20233;-84
2022/05/27 01:51:59;;;;;;;1.10;1.10;;;;;;;;;;5054210;28;20201;-84
2022/05/27 01:54:36;;;;;;;1.10;1.00;;;;;;;;;;5055653;28;20327;-85
2022/05/27 01:57:07;;;;;;;0.98;0.93;;;;;;;;;;5055024;28;20188;-84
2022/05/27 01:59:41;;;;;;;2.10;0.90;;;;;;;;;;5055198;28;20659;-84
2022/05/27 02:02:13;;;;;;;1.20;1.17;;;;;;;;;;5054438;28;20182;-83
2022/05/27 02:04:47;;;;;;;1.25;1.15;;;;;;;;;;5055119;28;20610;-84
2022/05/27 02:07:17;;;;;;;0.93;0.90;;;;;;;;;;5054964;28;20225;-85
2022/05/27 02:09:48;;;;;;;1.55;1.35;;;;;;;;;;5055312;28;20194;-85
2022/05/27 02:12:24;;;;;;;1.02;1.02;;;;;;;;;;5053914;28;20206;-84
2022/05/27 02:14:55;;;;;;;1.58;1.05;;;;;;;;;;5054806;28;20185;-85
2022/05/27 02:17:27;;;;;;;1.30;1.00;;;;;;;;;;5054586;28;20222;-84
2022/05/27 02:19:59;;;;;;;1.58;1.00;;;;;;;;;;5055260;28;20263;-84
2022/05/27 02:22:31;;;;;;;0.95;0.90;;;;;;;;;;5054418;28;20190;-84
2022/05/27 02:25:03;;;;;;;1.00;0.88;;;;;;;;;;5054527;28;20202;-85
2022/05/27 02:27:35;;;;;;;1.20;1.10;;;;;;;;;;5055497;28;20229;-84
2022/05/27 02:30:07;;;;;;;1.13;1.02;;;;;;;;;;5054617;28;20186;-85
2022/05/27 02:32:40;;;;;;;1.90;0.98;;;;;;;;;;5054074;28;20194;-84
2022/05/27 02:35:11;;;;;;;0.93;0.93;;;;;;;;;;5054391;28;20206;-85
2022/05/27 02:37:41;;;;;;;0.85;0.85;;;;;;;;;;5054096;28;20241;-84
2022/05/27 02:40:13;;;;;;;1.60;1.50;;;;;;;;;;5054107;28;20213;-84
2022/05/27 02:42:52;;;;;;;1.13;1.02;;;;;;;;;;5054188;28;20197;-84
2022/05/27 02:45:30;;;;;;;1.23;1.23;;;;;;;;;;5054194;28;20186;-84
2022/05/27 02:48:08;;;;;;;1.33;0.90;;;;;;;;;;5054534;28;20324;-84
2022/05/27 02:50:43;;;;;;;0.80;0.80;;;;;;;;;;5034757;28;20182;-85
2022/05/27 02:53:20;;;;;;;1.08;0.98;;;;;;;;;;5033440;28;20209;-84
2022/05/27 02:56:04;;;;;;;1.10;0.95;;;;;;;;;;5034157;28;20182;-84
2022/05/27 02:58:31;;;;;;;2.63;0.90;;;;;;;;;;5034047;28;20222;-83
2022/05/27 03:00:59;;;;;;;1.55;1.15;;;;;;;;;;5034359;28;20229;-85
2022/05/27 03:03:28;;;;;;;0.70;0.70;;;;;;;;;;5033668;28;20256;-85
2022/05/27 03:06:11;;;;;;;0.80;0.80;;;;;;;;;;5034061;28;20209;-85
2022/05/27 03:08:50;;;;;;;1.08;1.05;;;;;;;;;;5033977;28;20226;-85
2022/05/27 03:11:24;;;;;;;0.75;0.75;;;;;;;;;;5034709;28;20241;-85
2022/05/27 03:14:08;;;;;;;0.63;0.63;;;;;;;;;;5033389;28;20190;-85
2022/05/27 03:16:43;;;;;;;0.80;0.80;;;;;;;;;;5033917;28;20190;-85
2022/05/27 03:19:44;;;;;;;1.15;1.10;;;;;;;;;;5042072;28;20221;-85
2022/05/27 03:22:23;;;;;;;1.20;1.10;;;;;;;;;;5052057;28;20230;-85
2022/05/27 03:25:12;;;;;;;1.63;1.13;;;;;;;;;;5053632;28;20284;-85
2022/05/27 03:27:47;;;;;;;1.30;1.20;;;;;;;;;;5054132;28;20221;-84
2022/05/27 03:30:18;;;;;;;3.03;1.20;;;;;;;;;;5053583;28;20185;-84
2022/05/27 03:32:52;;;;;;;1.60;1.33;;;;;;;;;;5053200;28;20205;-85
2022/05/27 03:35:26;;;;;;;1.15;1.15;;;;;;;;;;5054447;28;20197;-84
2022/05/27 03:38:02;;;;;;;1.40;1.30;;;;;;;;;;5052766;28;20235;-85
2022/05/27 03:40:34;;;;;;;1.40;1.25;;;;;;;;;;5053584;28;20750;-85
2022/05/27 03:43:02;;;;;;;1.17;1.08;;;;;;;;;;5052631;28;20683;-83
2022/05/27 03:45:30;;;;;;;1.40;1.30;;;;;;;;;;5053141;28;20718;-86
2022/05/27 03:47:57;;;;;;;1.00;1.00;;;;;;;;;;5052995;28;20233;-85
2022/05/27 03:50:27;;;;;;;1.10;1.10;;;;;;;;;;5053274;28;20202;-85
2022/05/27 03:52:56;;;;;;;1.10;1.10;;;;;;;;;;5052308;28;20718;-87
2022/05/27 03:55:27;;;;;;;0.90;0.90;;;;;;;;;;5052923;28;20198;-86
2022/05/27 03:57:55;;;;;;;0.93;0.93;;;;;;;;;;5052460;28;20701;-85
2022/05/27 04:00:23;;;;;;;1.10;1.10;;;;;;;;;;5053524;28;20197;-86
2022/05/27 04:02:50;;;;;;;1.02;1.02;;;;;;;;;;5052444;28;20190;-85
2022/05/27 04:05:19;;;;;;;1.05;1.05;;;;;;;;;;5052461;28;20210;-85
2022/05/27 04:07:47;;;;;;;0.85;0.85;;;;;;;;;;5054370;28;20221;-85
2022/05/27 04:10:16;;;;;;;1.10;1.00;;;;;;;;;;5052015;28;20201;-87
2022/05/27 04:12:43;;;;;;;0.95;0.95;;;;;;;;;;5052517;28;20567;-87
2022/05/27 04:15:11;;;;;;;1.02;1.00;;;;;;;;;;5052242;28;20205;-88
2022/05/27 04:17:43;;;;;;;1.23;1.23;;;;;;;;;;5060452;28;20690;-92
2022/05/27 04:20:14;;;;;;;1.00;1.00;;;;;;;;;;5057642;28;20225;-90
2022/05/27 04:22:42;;;;;;;1.30;1.20;;;;;;;;;;5055033;28;20206;-88
2022/05/27 04:25:12;;;;;;;0.70;0.70;;;;;;;;;;5053091;28;20205;-90
2022/05/27 04:27:40;;;;;;;0.90;0.90;;;;;;;;;;5053703;28;20228;-89
2022/05/27 04:30:10;;;;;;;1.00;1.00;;;;;;;;;;5052994;28;20659;-89
2022/05/27 04:32:37;;;;;;;1.30;1.20;;;;;;;;;;5055086;28;20201;-89
2022/05/27 04:35:06;;;;;;;1.02;1.00;;;;;;;;;;5053611;28;20204;-90
2022/05/27 04:37:34;;;;;;;1.00;1.00;;;;;;;;;;5053421;28;20240;-90
2022/05/27 04:40:01;;;;;;;0.95;0.88;;;;;;;;;;5054401;28;20251;-90
2022/05/27 04:42:30;;;;;;;0.90;0.90;;;;;;;;;;5055354;28;20218;-88
2022/05/27 04:44:57;;;;;;;0.82;0.82;;;;;;;;;;5056285;28;20229;-90
2022/05/27 04:47:25;;;;;;;0.90;0.90;;;;;;;;;;5056235;28;20221;-90
2022/05/27 04:49:53;;;;;;;0.90;0.90;;;;;;;;;;5055232;28;20198;-90
2022/05/27 04:52:23;;;;;;;0.90;0.90;;;;;;;;;;5058486;28;20236;-93
2022/05/27 04:54:50;;;;;;;0.80;0.80;;;;;;;;;;5059870;28;20201;-91
2022/05/27 04:57:21;;;;;;;0.70;0.70;;;;;;;;;;5064193;28;20220;-92
2022/05/27 04:59:50;;;;;;;0.80;0.80;;;;;;;;;;5064154;28;20185;-91
2022/05/27 05:02:20;;;;;;;0.70;0.70;;;;;;;;;;5055353;28;20210;-92
2022/05/27 05:04:47;;;;;;;0.85;0.85;;;;;;;;;;5056287;28;20614;-88
2022/05/27 05:07:15;;;;;;;0.60;0.60;;;;;;;;;;5054959;28;20221;-88
2022/05/27 05:09:43;;;;;;;0.70;0.70;;;;;;;;;;5057323;28;20213;-89
2022/05/27 05:12:13;;;;;;;0.77;0.77;;;;;;;;;;5055038;28;20197;-89
2022/05/27 05:14:40;;;;;;;0.80;0.80;;;;;;;;;;5054639;28;20202;-90
2022/05/27 05:17:09;;;;;;;1.67;1.58;;;;;;;;;;5056795;28;20208;-89
2022/05/27 05:19:37;;;;;;;0.88;0.88;;;;;;;;;;5054059;28;20217;-89
2022/05/27 05:22:04;;;;;;;1.70;1.23;;;;;;;;;;5054323;28;20271;-90
2022/05/27 05:24:32;;;;;;;1.10;1.10;;;;;;;;;;5060526;28;20200;-90
2022/05/27 05:27:00;;;;;;;0.80;0.80;;;;;;;;;;5058061;28;20190;-88
2022/05/27 05:29:27;;;;;;;0.75;0.75;;;;;;;;;;5057903;28;20201;-90
2022/05/27 05:31:55;;;;;;;0.93;0.93;;;;;;;;;;5056498;28;20209;-90
2022/05/27 05:34:23;;;;;;;1.10;1.10;;;;;;;;;;5056088;28;20190;-89
2022/05/27 05:36:54;;;;;;;1.48;1.38;;;;;;;;;;5056312;28;20685;-90
2022/05/27 05:39:21;;;;;;;1.20;1.10;;;;;;;;;;5055329;28;20201;-89
2022/05/27 05:41:58;;;;;;;1.20;1.10;;;;;;;;;;5056971;28;20379;-89
2022/05/27 05:44:26;;;;;;;0.90;0.90;;;;;;;;;;5055883;28;20662;-89
2022/05/27 05:46:54;;;;;;;1.40;1.27;;;;;;;;;;5055881;28;20193;-89
2022/05/27 05:49:23;;;;;;;0.93;0.90;;;;;;;;;;5053737;28;20224;-87
2022/05/27 05:51:51;;;;;;;0.80;0.80;;;;;;;;;;5055802;28;20221;-89
2022/05/27 05:54:20;;;;;;;1.42;1.33;;;;;;;;;;5055401;28;20255;-89
2022/05/27 05:56:47;;;;;;;1.00;1.00;;;;;;;;;;5056291;28;20197;-89
2022/05/27 05:59:15;;;;;;;1.17;1.10;;;;;;;;;;5056359;28;20218;-90
2022/05/27 06:01:42;;;;;;;1.20;1.20;;;;;;;;;;5055628;28;20320;-89
2022/05/27 06:04:10;;;;;;;1.30;1.25;;;;;;;;;;5056620;28;20202;-89
2022/05/27 06:06:39;;;;;;;1.40;1.30;;;;;;;;;;5056054;28;20229;-89
2022/05/27 06:09:08;;;;;;;0.88;0.88;;;;;;;;;;5055216;28;20221;-89
2022/05/27 06:11:37;;;;;;;0.90;0.90;;;;;;;;;;5055855;28;20209;-89
2022/05/27 06:14:04;;;;;;;2.05;1.15;;;;;;;;;;5055422;28;20202;-89
2022/05/27 06:16:32;;;;;;;0.95;0.93;;;;;;;;;;5055172;28;20263;-89
2022/05/27 06:18:59;;;;;;;1.42;1.33;;;;;;;;;;5054783;28;20229;-89
2022/05/27 06:21:27;;;;;;;1.10;0.90;;;;;;;;;;5056173;28;20205;-88
2022/05/27 06:23:56;;;;;;;1.00;1.00;;;;;;;;;;5054992;28;20226;-89
2022/05/27 06:26:23;;;;;;;1.25;1.20;;;;;;;;;;5054925;28;20206;-89
2022/05/27 06:34:26;;;;;;;1.45;1.17;;;;;;;;;;5054860;28;20593;-89
2022/05/27 06:36:57;;;;;;;1.55;1.00;;;;;;;;;;5057912;28;20281;-90
2022/05/27 06:39:27;;;;;;;1.17;1.10;;;;;;;;;;5054934;28;20659;-89
2022/05/27 06:41:55;;;;;;;3.08;1.10;;;;;;;;;;5053674;28;20869;-88
2022/05/27 06:44:23;;;;;;;1.33;1.15;;;;;;;;;;5054475;28;20209;-88
2022/05/27 06:46:52;;;;;;;1.52;1.35;;;;;;;;;;5054606;28;20198;-88
2022/05/27 06:49:19;;;;;;;2.33;1.20;;;;;;;;;;5054382;28;20212;-90
2022/05/27 06:51:48;;;;;;;1.20;1.08;;;;;;;;;;5055265;28;20301;-90
2022/05/27 06:54:17;;;;;;;2.17;1.27;;;;;;;;;;5054306;28;20690;-89
2022/05/27 06:56:49;;;;;;;1.52;1.10;;;;;;;;;;5054217;28;20259;-88
2022/05/27 06:59:17;;;;;;;1.38;1.23;;;;;;;;;;5054505;28;20201;-89
2022/05/27 07:01:45;;;;;;;1.27;1.10;;;;;;;;;;5055293;28;20205;-90
2022/05/27 07:04:12;;;;;;;1.10;1.10;;;;;;;;;;5055489;28;20226;-90
2022/05/27 07:06:43;;;;;;;1.10;1.00;;;;;;;;;;5055559;28;20210;-90
2022/05/27 07:09:12;;;;;;;1.13;1.02;;;;;;;;;;5055725;28;20640;-89
2022/05/27 07:11:41;;;;;;;1.55;1.05;;;;;;;;;;5054891;28;20201;-87
2022/05/27 07:14:10;;;;;;;2.05;1.05;;;;;;;;;;5055171;28;20201;-88
2022/05/27 07:16:37;;;;;;;1.20;1.10;;;;;;;;;;5054550;28;20190;-89
2022/05/27 07:19:04;;;;;;;1.27;1.17;;;;;;;;;;5053864;28;20227;-89
2022/05/27 07:21:32;;;;;;;1.08;0.98;;;;;;;;;;5053791;28;20208;-89
2022/05/27 07:23:59;;;;;;;1.67;1.40;;;;;;;;;;5054100;28;20225;-89
2022/05/27 07:26:28;;;;;;;1.63;1.48;;;;;;;;;;5053733;28;20200;-89
2022/05/27 07:28:55;;;;;;;3.72;2.55;;;;;;;;;;5054329;28;20233;-89
2022/05/27 07:31:24;;;;;;;1.63;1.50;;;;;;;;;;5054223;28;20213;-89
2022/05/27 07:33:51;;;;;;;3.00;1.67;;;;;;;;;;5053769;28;20204;-89
2022/05/27 07:36:18;;;;;;;1.40;1.30;;;;;;;;;;5054191;28;20251;-89
2022/05/27 07:38:47;;;;;;;1.55;1.42;;;;;;;;;;5053538;28;20743;-90
2022/05/27 07:41:14;;;;;;;2.38;2.17;;;;;;;;;;5053963;28;20205;-90
2022/05/27 07:43:42;;;;;;;1.63;1.52;;;;;;;;;;5035337;28;20226;-90
2022/05/27 07:46:10;;;;;;;3.50;1.92;;;;;;;;;;5038314;28;20209;-89
2022/05/27 07:48:38;;;;;;;1.42;1.30;;;;;;;;;;5053304;28;20225;-90
2022/05/27 07:51:06;;;;;;;3.20;1.58;;;;;;;;;;5053358;28;20221;-90
2022/05/27 07:53:38;;;;;;;1.60;1.50;;;;;;;;;;5052617;28;20308;-89
2022/05/27 07:56:07;;;;;;;2.33;1.55;;;;;;;;;;5053354;28;20201;-90
2022/05/27 07:58:35;;;;;;;1.08;1.02;;;;;;;;;;5053142;28;20218;-89
2022/05/27 08:01:03;;;;;;;1.50;1.40;;;;;;;;;;5053582;28;20206;-89
2022/05/27 08:03:31;;;;;;;3.03;1.45;;;;;;;;;;5053270;28;20221;-90
2022/05/27 08:06:01;;;;;;;3.13;1.50;;;;;;;;;;5053390;28;20209;-88
2022/05/27 08:08:30;;;;;;;1.60;1.50;;;;;;;;;;5053213;28;20220;-88
2022/05/27 08:10:58;;;;;;;1.90;1.30;;;;;;;;;;5052963;28;20209;-87
2022/05/27 08:13:26;;;;;;;1.52;1.35;;;;;;;;;;5036854;28;20282;-89
2022/05/27 08:15:55;;;;;;;1.45;1.15;;;;;;;;;;5035653;28;20213;-91
2022/05/27 08:18:24;;;;;;;1.55;1.40;;;;;;;;;;5045206;28;20221;-90
2022/05/27 08:20:51;;;;;;;1.48;1.33;;;;;;;;;;5052822;28;20285;-90
2022/05/27 08:23:20;;;;;;;1.35;1.25;;;;;;;;;;5051886;28;20225;-89
2022/05/27 08:25:47;;;;;;;2.45;1.17;;;;;;;;;;5032640;28;20655;-88
2022/05/27 08:28:15;;;;;;;2.08;1.67;;;;;;;;;;5045950;28;20606;-89
2022/05/27 08:30:42;;;;;;;2.13;1.35;;;;;;;;;;5053098;28;20202;-89
2022/05/27 08:33:10;;;;;;;2.50;1.35;;;;;;;;;;5053590;28;20197;-87
2022/05/27 08:38:29;;;;;;;1.83;1.20;;;;;;;;;;5048298;28;20227;-89
2022/05/27 08:41:22;;;;;;;1.73;1.63;;;;;;;;;;5052812;28;20208;-89
2022/05/27 08:44:05;;;;;;;2.40;1.02;;;;;;;;;;5051767;28;20221;-87
2022/05/27 08:46:41;;;;;;;3.80;1.50;;;;;;;;;;5032775;28;20237;-89
2022/05/27 08:49:11;;;;;;;2.90;1.50;;;;;;;;;;5041521;28;20225;-88
2022/05/27 08:51:42;;;;;;;2.47;1.30;;;;;;;;;;5052195;28;20190;-88
2022/05/27 08:54:14;;;;;;;1.40;1.30;;;;;;;;;;5052727;28;20193;-87
2022/05/27 08:59:37;;;;;;;1.73;1.63;;;;;;;;;;5055509;28;20695;-84
2022/05/27 09:02:11;;;;;;;1.40;1.10;;;;;;;;;;5054429;28;20681;-86
2022/05/27 09:04:47;;;;;;;3.08;1.80;;;;;;;;;;5055127;28;20209;-86
2022/05/27 09:07:30;;;;;;;1.65;1.35;;;;;;;;;;5055044;28;20228;-87
2022/05/27 09:09:59;;;;;;;1.42;1.30;;;;;;;;;;5055034;28;20193;-85
2022/05/27 09:12:39;;;;;;;1.60;1.50;;;;;;;;;;5055436;28;20205;-85
2022/05/27 09:15:32;;;;;;;3.22;2.17;;;;;;;;;;5055869;28;20196;-86
2022/05/27 09:18:11;;;;;;;6.18;1.65;;;;;;;;;;5055795;28;20233;-85
2022/05/27 09:20:51;;;;;;;2.05;1.70;;;;;;;;;;5055587;28;20182;-86
2022/05/27 09:23:32;;;;;;;1.70;1.60;;;;;;;;;;5055091;28;20210;-89
2022/05/27 09:26:05;;;;;;;1.65;1.55;;;;;;;;;;5055642;28;20192;-86
2022/05/27 09:28:41;;;;;;;1.50;1.40;;;;;;;;;;5055485;28;20650;-86
2022/05/27 09:31:11;;;;;;;1.88;1.50;;;;;;;;;;5055269;28;20181;-85
2022/05/27 09:33:38;;;;;;;1.33;1.23;;;;;;;;;;5054891;28;20209;-87
2022/05/27 09:36:11;;;;;;;1.90;1.75;;;;;;;;;;5055465;28;20205;-88
2022/05/27 09:38:46;;;;;;;1.85;1.75;;;;;;;;;;5055204;28;20721;-88
2022/05/27 09:41:23;;;;;;;2.80;1.83;;;;;;;;;;5055127;28;20382;-88
2022/05/27 09:43:56;;;;;;;1.92;1.83;;;;;;;;;;5034631;28;20182;-89
2022/05/27 09:46:28;;;;;;;2.60;2.22;;;;;;;;;;5036687;28;20182;-86
2022/05/27 09:48:57;;;;;;;1.67;1.58;;;;;;;;;;5054662;28;20693;-87
2022/05/27 09:51:26;;;;;;;1.52;1.15;;;;;;;;;;5055610;28;20283;-89
2022/05/27 09:53:57;;;;;;;1.80;1.63;;;;;;;;;;5054185;28;20202;-87
2022/05/27 09:56:40;;;;;;;3.67;1.88;;;;;;;;;;5054943;28;20197;-87
2022/05/27 09:59:25;;;;;;;2.10;2.00;;;;;;;;;;5054794;28;20263;-90
2022/05/27 10:01:54;;;;;;;2.53;2.33;;;;;;;;;;5054301;28;20205;-88
2022/05/27 10:04:22;;;;;;;2.05;1.77;;;;;;;;;;5054745;28;20226;-89
2022/05/27 10:06:51;;;;;;;3.55;1.95;;;;;;;;;;5053323;28;20206;-89
2022/05/27 10:09:29;;;;;;;2.20;1.90;;;;;;;;;;5054663;28;20205;-88
2022/05/27 10:11:59;;;;;;;2.78;1.92;;;;;;;;;;5054254;28;20571;-89
2022/05/27 10:14:29;;;;;;;1.58;1.48;;;;;;;;;;5055033;28;20220;-88
2022/05/27 10:17:08;;;;;;;2.17;1.60;;;;;;;;;;5054631;28;20255;-88
2022/05/27 10:19:36;;;;;;;3.80;1.70;;;;;;;;;;5054410;28;20213;-89
2022/05/27 10:22:07;;;;;;;2.55;1.67;;;;;;;;;;5054382;28;20251;-88
2022/05/27 10:24:38;;;;;;;3.95;1.95;;;;;;;;;;5054902;28;20570;-88
2022/05/27 10:27:11;;;;;;;1.40;1.30;;;;;;;;;;5054567;28;20685;-87
2022/05/27 10:29:56;;;;;;;2.45;2.13;;;;;;;;;;5054365;28;20216;-88
2022/05/27 10:32:30;;;;;;;2.72;1.80;;;;;;;;;;5053910;28;20193;-89
2022/05/27 10:34:58;;;;;;;1.77;1.50;;;;;;;;;;5054504;28;20186;-89
2022/05/27 10:37:37;;;;;;;2.58;2.22;;;;;;;;;;5054005;28;20238;-87
2022/05/27 10:40:34;;;;;;;3.22;1.45;;;;;;;;;;5054349;28;20181;-87
2022/05/27 10:43:14;;;;;;;2.08;1.90;;;;;;;;;;5034698;28;20655;-88
2022/05/27 10:45:47;;;;;;;2.22;1.63;;;;;;;;;;5054088;28;20202;-88
2022/05/27 10:48:56;;;;;;;2.10;1.77;;;;;;;;;;5053582;28;20236;-89
2022/05/27 10:51:39;;;;;;;1.92;1.70;;;;;;;;;;5047016;28;20659;-87
2022/05/27 10:54:29;;;;;;;1.98;1.63;;;;;;;;;;5053930;28;20239;-88
2022/05/27 11:03:26;;;;;;;2.67;1.63;;;;;;;;;;5053319;28;20185;-87
2022/05/27 11:06:19;;;;;;;2.28;1.80;;;;;;;;;;5050841;28;20222;-87
2022/05/27 11:09:04;;;;;;;3.25;1.67;;;;;;;;;;5055463;28;20732;-89
2022/05/27 11:11:38;;;;;;;1.77;1.67;;;;;;;;;;5056338;28;20197;-86
2022/05/27 11:17:09;;;;;;;1.98;1.77;;;;;;;;;;5053421;28;20184;-88
2022/05/27 11:20:28;;;;;;;1.90;1.30;;;;;;;;;;5053106;28;20666;-87
2022/05/27 11:23:04;;;;;;;2.08;1.60;;;;;;;;;;5009832;28;20212;-86
2022/05/27 11:25:45;;;;;;;2.97;1.60;;;;;;;;;;5033096;28;20206;-85
2022/05/27 11:28:44;;;;;;;1.25;1.15;;;;;;;;;;5048586;28;20225;-89
2022/05/27 11:31:25;;;;;;;1.45;1.20;;;;;;;;;;5021861;28;20247;-87
2022/05/27 11:34:01;;;;;;;1.90;1.80;;;;;;;;;;5052838;28;20202;-87
2022/05/27 11:36:43;;;;;;;2.10;1.98;;;;;;;;;;5053340;28;20178;-86
2022/05/27 11:39:55;;;;;;;1.58;1.48;;;;;;;;;;5053031;28;20240;-88
2022/05/27 11:42:48;;;;;;;2.28;1.73;;;;;;;;;;5045497;28;20202;-88
2022/05/27 11:45:21;;;;;;;2.38;1.40;;;;;;;;;;5033024;28;20233;-87
2022/05/27 11:48:05;;;;;;;1.40;1.30;;;;;;;;;;5047551;28;20260;-87
2022/05/27 11:50:57;;;;;;;1.52;1.38;;;;;;;;;;5052759;28;20292;-86
2022/05/27 11:53:43;;;;;;;2.30;1.77;;;;;;;;;;5032574;28;20194;-85
2022/05/27 11:56:17;;;;;;;2.35;2.00;;;;;;;;;;5032974;28;20240;-87
2022/05/27 11:58:50;;;;;;;2.88;1.75;;;;;;;;;;5042771;28;20619;-87
2022/05/27 12:01:35;;;;;;;2.55;1.83;;;;;;;;;;5052799;28;20535;-86
2022/05/27 12:04:09;;;;;;;1.58;1.40;;;;;;;;;;5052690;28;20608;-87
2022/05/27 12:06:45;;;;;;;4.85;2.17;;;;;;;;;;5053114;28;20201;-87
2022/05/27 12:09:24;;;;;;;2.08;1.70;;;;;;;;;;5052702;28;20225;-86
2022/05/27 12:11:55;;;;;;;3.50;1.80;;;;;;;;;;5049354;28;20201;-88
2022/05/27 12:14:30;;;;;;;2.45;1.40;;;;;;;;;;5036531;28;20197;-87
2022/05/27 12:16:59;;;;;;;1.90;1.48;;;;;;;;;;5053034;28;20578;-87
2022/05/27 12:19:30;;;;;;;3.20;2.40;;;;;;;;;;5053133;28;20236;-87
2022/05/27 12:22:07;;;;;;;3.17;1.88;;;;;;;;;;5054215;28;20608;-87
2022/05/27 12:24:39;;;;;;;2.65;1.77;;;;;;;;;;5052861;28;20201;-86
2022/05/27 12:27:07;;;;;;;3.10;1.98;;;;;;;;;;5052536;28;20213;-87
2022/05/27 12:29:35;;;;;;;2.20;1.70;;;;;;;;;;5052435;28;20713;-86
2022/05/27 12:32:03;;;;;;;4.05;1.92;;;;;;;;;;5055626;28;20194;-85
2022/05/27 12:34:44;;;;;;;2.35;1.10;;;;;;;;;;5056319;28;20206;-87
2022/05/27 12:37:25;;;;;;;3.33;1.83;;;;;;;;;;5056342;28;20225;-88
2022/05/27 12:40:22;;;;;;;2.70;1.85;;;;;;;;;;5056377;28;20639;-86
2022/05/27 12:42:55;;;;;;;2.08;1.55;;;;;;;;;;5055864;28;20205;-88
2022/05/27 12:45:38;;;;;;;3.30;1.58;;;;;;;;;;5056157;28;20178;-87
2022/05/27 12:48:08;;;;;;;2.00;1.73;;;;;;;;;;5055395;28;20231;-87
2022/05/27 12:50:39;;;;;;;2.67;1.75;;;;;;;;;;5056211;28;20284;-87
2022/05/27 12:53:21;;;;;;;2.47;1.77;;;;;;;;;;5056146;28;20190;-87
2022/05/27 13:01:44;;;;;;;1.73;1.58;;;;;;;;;;5055483;28;20584;-88
2022/05/27 13:04:45;;;;;;;2.63;1.58;;;;;;;;;;5056331;28;20205;-87
2022/05/27 13:07:13;;;;;;;3.58;1.45;;;;;;;;;;5055932;28;20618;-87
2022/05/27 13:09:46;;;;;;;2.78;1.95;;;;;;;;;;5055847;28;20603;-87
2022/05/27 13:12:56;;;;;;;2.25;1.65;;;;;;;;;;5055269;28;20728;-86
2022/05/27 13:15:33;;;;;;;6.28;2.25;;;;;;;;;;5055226;28;20200;-87
2022/05/27 13:18:13;;;;;;;2.17;1.58;;;;;;;;;;5049804;28;20221;-86
2022/05/27 13:20:53;;;;;;;1.95;1.70;;;;;;;;;;5044488;28;20681;-86
2022/05/27 13:23:25;;;;;;;1.40;1.23;;;;;;;;;;5055150;28;20201;-86
2022/05/27 13:26:07;;;;;;;3.90;1.38;;;;;;;;;;5055121;28;20210;-86
2022/05/27 13:28:39;;;;;;;2.95;1.33;;;;;;;;;;5035142;28;20223;-86
2022/05/27 13:31:12;;;;;;;3.45;1.60;;;;;;;;;;5035664;28;20553;-87
2022/05/27 13:33:45;;;;;;;1.98;1.65;;;;;;;;;;5049386;28;20201;-87
2022/05/27 13:36:21;;;;;;;2.90;1.60;;;;;;;;;;5055443;28;20202;-86
2022/05/27 13:38:55;;;;;;;4.68;1.70;;;;;;;;;;5054960;28;20320;-86
2022/05/27 13:41:23;;;;;;;3.38;1.83;;;;;;;;;;5055028;28;20201;-87
2022/05/27 13:43:55;;;;;;;1.33;1.23;;;;;;;;;;5053248;28;20210;-87
2022/05/27 13:46:27;;;;;;;1.58;1.48;;;;;;;;;;5054075;28;20214;-87
2022/05/27 13:48:58;;;;;;;5.38;1.85;;;;;;;;;;5054345;28;20218;-87
2022/05/27 13:51:27;;;;;;;5.20;2.42;;;;;;;;;;5054679;28;20205;-90
2022/05/27 13:53:55;;;;;;;2.83;1.40;;;;;;;;;;5055377;28;20213;-87
2022/05/27 13:56:25;;;;;;;2.83;1.70;;;;;;;;;;5055256;28;20205;-90
2022/05/27 13:58:57;;;;;;;2.22;1.40;;;;;;;;;;5054784;28;20230;-89
2022/05/27 14:01:29;;;;;;;3.13;1.65;;;;;;;;;;5057203;28;20209;-88
2022/05/27 14:04:10;;;;;;;1.45;1.35;;;;;;;;;;5034741;28;20207;-89
2022/05/27 14:06:37;;;;;;;2.72;2.13;;;;;;;;;;5043795;28;20217;-87
2022/05/27 14:09:15;;;;;;;3.42;1.60;;;;;;;;;;5054585;28;20308;-88
2022/05/27 14:11:49;;;;;;;3.20;2.00;;;;;;;;;;5054155;28;20206;-88
2022/05/27 14:14:24;;;;;;;1.88;1.52;;;;;;;;;;5054991;28;20202;-87
2022/05/27 14:16:52;;;;;;;3.13;1.70;;;;;;;;;;5054446;28;20197;-89
2022/05/27 14:19:22;;;;;;;2.67;1.48;;;;;;;;;;5054191;28;20268;-88
2022/05/27 14:24:49;;;;;;;2.25;1.55;;;;;;;;;;5054314;28;20949;-88
2022/05/27 14:27:21;;;;;;;3.53;1.45;;;;;;;;;;5053929;28;20234;-88
2022/05/27 14:29:54;;;;;;;1.40;1.30;;;;;;;;;;5054507;28;20212;-87
2022/05/27 14:32:23;;;;;;;1.55;1.45;;;;;;;;;;5053674;28;20234;-86
2022/05/27 14:34:53;;;;;;;7.93;3.33;;;;;;;;;;5054566;28;20198;-88
2022/05/27 14:37:35;;;;;;;1.83;1.25;;;;;;;;;;5053953;28;20589;-88
2022/05/27 14:40:10;;;;;;;2.92;1.65;;;;;;;;;;5053961;28;20190;-89
2022/05/27 14:42:38;;;;;;;3.10;1.48;;;;;;;;;;5053444;28;20192;-87
2022/05/27 14:45:15;;;;;;;2.88;1.15;;;;;;;;;;5054003;28;20603;-85
2022/05/27 14:47:43;;;;;;;2.42;1.40;;;;;;;;;;5051162;28;20237;-87
2022/05/27 14:50:19;;;;;;;6.05;1.85;;;;;;;;;;5053737;28;20224;-88
2022/05/27 14:52:55;;;;;;;2.15;1.27;;;;;;;;;;5052676;28;20751;-88
2022/05/27 14:55:24;;;;;;;2.08;1.08;;;;;;;;;;5053208;28;20335;-88
2022/05/27 14:57:54;;;;;;;2.28;1.50;;;;;;;;;;5053310;28;20312;-88
2022/05/27 15:00:32;;;;;;;2.63;1.83;;;;;;;;;;5052998;28;20210;-89
2022/05/27 15:03:02;;;;;;;1.73;1.40;;;;;;;;;;5046217;28;20213;-89
2022/05/27 15:05:35;;;;;;;1.85;1.20;;;;;;;;;;5053157;28;20206;-88
2022/05/27 15:08:06;;;;;;;3.67;1.80;;;;;;;;;;5052842;28;20236;-89
2022/05/27 15:10:35;;;;;;;2.45;1.23;;;;;;;;;;5053199;28;20205;-89
2022/05/27 15:13:25;;;;;;;3.35;1.63;;;;;;;;;;5052342;28;20205;-88
2022/05/27 15:15:55;;;;;;;2.10;1.17;;;;;;;;;;5052430;28;20212;-88
2022/05/27 15:18:28;;;;;;;3.30;1.25;;;;;;;;;;5051815;28;20652;-88
2022/05/27 15:21:00;;;;;;;3.28;1.50;;;;;;;;;;5052845;28;20209;-88
2022/05/27 15:23:33;;;;;;;4.43;1.70;;;;;;;;;;5046347;28;20216;-88
2022/05/27 15:34:25;;;;;;;5.63;3.28;;;;;;;;;;5035023;28;20251;-87
2022/05/27 15:36:52;;;;;;;1.08;1.05;;;;;;;;;;5053109;28;20654;-85
2022/05/27 15:39:21;;;;;;;1.92;1.50;;;;;;;;;;5052178;28;20210;-86
2022/05/27 15:41:49;;;;;;;1.90;1.38;;;;;;;;;;5052056;28;20205;-86
2022/05/27 15:44:16;;;;;;;1.88;1.35;;;;;;;;;;5052464;28;20202;-87
2022/05/27 15:46:45;;;;;;;1.80;1.20;;;;;;;;;;5052516;28;20236;-86
2022/05/27 15:49:13;;;;;;;5.65;3.05;;;;;;;;;;5051877;28;20256;-87
2022/05/27 15:51:40;;;;;;;2.03;1.23;;;;;;;;;;5052124;28;20201;-88
2022/05/27 15:54:08;;;;;;;2.22;1.85;;;;;;;;;;5052629;28;20567;-86
2022/05/27 15:56:35;;;;;;;3.05;1.75;;;;;;;;;;5052378;28;20654;-87
2022/05/27 15:59:04;;;;;;;6.47;2.38;;;;;;;;;;5051797;28;20331;-87